createdAt,value
2023-04-24T00:00:32.664Z,8.4
2023-04-24T00:06:26.427Z,8.3
2023-04-24T00:12:17.851Z,8.3
2023-04-24T00:18:09.594Z,8.1
2023-04-24T00:24:00.934Z,8.1
2023-04-24T00:29:51.481Z,8
2023-04-24T00:35:43.488Z,7.9
2023-04-24T00:41:34.766Z,7.8
2023-04-24T00:47:25.437Z,7.8
2023-04-24T00:53:16.545Z,7.7
2023-04-24T00:58:52.459Z,7.6
2023-04-24T01:04:45.564Z,7.6
2023-04-24T01:10:37.157Z,7.6
2023-04-24T01:16:29.087Z,7.5
2023-04-24T01:22:21.083Z,7.4
2023-04-24T01:28:12.490Z,7.3
2023-04-24T01:34:04.453Z,7.1
2023-04-24T01:39:40.659Z,6.9
2023-04-24T01:45:32.337Z,6.8
2023-04-24T01:51:24.317Z,6.6
2023-04-24T01:57:15.486Z,6.5
2023-04-24T02:03:08.373Z,6.3
2023-04-24T02:09:01.449Z,6.2
2023-04-24T02:14:52.322Z,6.1
2023-04-24T02:20:43.753Z,5.9
2023-04-24T02:26:19.796Z,5.9
2023-04-24T02:32:10.557Z,5.8
2023-04-24T02:38:02.076Z,5.6
2023-04-24T02:43:53.507Z,5.6
2023-04-24T02:49:45.186Z,5.6
2023-04-24T02:55:37.015Z,5.5
2023-04-24T03:01:28.803Z,5.4
2023-04-24T03:07:21.987Z,5.4
2023-04-24T03:13:13.567Z,5.4
2023-04-24T03:19:08.305Z,5.3
2023-04-24T03:25:00.186Z,5.3
2023-04-24T03:30:51.998Z,5.4
2023-04-24T03:36:44.307Z,5.4
2023-04-24T03:42:20.394Z,5.4
2023-04-24T03:48:14.446Z,5.4
2023-04-24T03:54:07.498Z,5.5
2023-04-24T03:59:58.977Z,5.6
2023-04-24T04:05:52.581Z,5.8
2023-04-24T04:11:44.111Z,5.9
2023-04-24T04:17:35.618Z,6.1
2023-04-24T04:23:26.925Z,6.4
2023-04-24T04:29:18.779Z,6.6
2023-04-24T04:35:10.501Z,6.8
2023-04-24T04:41:02.398Z,7.1
2023-04-24T04:46:54.321Z,7.4
2023-04-24T04:52:46.129Z,8
2023-04-24T04:58:38.346Z,8.6
2023-04-24T05:04:33.326Z,9.3
2023-04-24T05:10:32.220Z,9.8
2023-04-24T05:16:36.062Z,10.4
2023-04-24T05:22:28.140Z,10.9
2023-04-24T05:28:03.072Z,11.4
2023-04-24T05:33:40.208Z,12.1
2023-04-24T05:39:31.841Z,12.9
2023-04-24T05:45:22.844Z,13.7
2023-04-24T05:50:58.957Z,14.8
2023-04-24T05:56:50.783Z,16.6
2023-04-24T06:02:42.364Z,18.9
2023-04-24T06:08:37.234Z,22.7
2023-04-24T06:13:58.610Z,26.5
2023-04-24T06:19:51.093Z,31.9
2023-04-24T06:25:42.136Z,34.8
2023-04-24T06:31:18.735Z,34.5
2023-04-24T06:37:18.628Z,35.6
2023-04-24T06:42:54.990Z,40.4
2023-04-24T06:48:32.043Z,38
2023-04-24T06:54:23.746Z,32.2
2023-04-24T07:00:15.559Z,35.4
2023-04-24T07:06:11.057Z,42
2023-04-24T07:12:02.819Z,38.6
2023-04-24T07:17:40.215Z,33.4
2023-04-24T07:23:16.619Z,36.3
2023-04-24T07:28:54.697Z,44.1
2023-04-24T07:34:47.327Z,43.4
2023-04-24T07:40:39.085Z,43.4
2023-04-24T07:46:31.248Z,45.1
2023-04-24T07:52:37.401Z,46.7
2023-04-24T07:58:31.622Z,47.9
2023-04-24T08:04:25.132Z,49.4
2023-04-24T08:10:21.823Z,50.5
2023-04-24T08:15:57.810Z,51.6
2023-04-24T08:21:50.271Z,52.8
2023-04-24T08:27:41.726Z,53.5
2023-04-24T08:33:20.830Z,53.4
2023-04-24T08:39:06.361Z,54.7
2023-04-24T08:44:57.864Z,55.8
2023-04-24T08:51:06.281Z,57
2023-04-24T08:56:57.487Z,56.9
2023-04-24T09:02:34.086Z,58
2023-04-24T09:08:29.153Z,58.9
2023-04-24T09:14:20.303Z,57.7
2023-04-24T09:20:12.204Z,54.6
2023-04-24T09:25:48.546Z,53.4
2023-04-24T09:31:25.674Z,57.4
2023-04-24T09:37:01.700Z,60.3
2023-04-24T09:42:53.350Z,60.3
2023-04-24T09:48:55.339Z,61.1
2023-04-24T09:54:50.579Z,61.7
2023-04-24T10:00:42.577Z,63.3
2023-04-24T10:06:36.110Z,60.6
2023-04-24T10:12:28.475Z,62.8
2023-04-24T10:18:20.752Z,64
2023-04-24T10:24:12.500Z,61.8
2023-04-24T10:30:03.685Z,62.6
2023-04-24T10:35:56.305Z,64.3
2023-04-24T10:41:47.881Z,62.5
2023-04-24T10:47:40.293Z,65.9
2023-04-24T10:53:31.930Z,61.1
2023-04-24T10:59:23.726Z,61.1
2023-04-24T11:05:02.640Z,52.9
2023-04-24T11:10:56.312Z,48.6
2023-04-24T11:16:32.880Z,44.4
